Time;durP1;ratioP1;P1;durP2;ratioP2;P2;SDS_P1;SDS_P2;PMS_P1;PMS_P2;Temp;Humidity;BMP_temperature;BMP_pressure;BME280_temperature;BME280_humidity;BME280_pressure;Samples;Min_cycle;Max_cycle;Signal;HPM_P1;HPM_P2
2023/07/25 00:00:29;;;;;;;9.13;3.60;;;13.00;99.90;;;;;;5112522;28;20082;-57
2023/07/25 00:02:54;;;;;;;11.38;3.03;;;12.90;99.90;;;;;;5112584;28;20044;-57
2023/07/25 00:05:20;;;;;;;14.70;3.80;;;12.90;99.90;;;;;;5112602;28;20127;-57
2023/07/25 00:07:46;;;;;;;7.32;3.00;;;12.80;99.90;;;;;;5112107;28;20374;-57
2023/07/25 00:10:11;;;;;;;9.43;3.28;;;12.90;99.90;;;;;;5112812;28;20035;-57
2023/07/25 00:12:38;;;;;;;7.57;3.22;;;12.80;99.90;;;;;;5112550;28;20039;-57
2023/07/25 00:15:05;;;;;;;7.07;3.17;;;12.90;99.90;;;;;;5111112;28;20102;-56
2023/07/25 00:17:31;;;;;;;12.75;3.42;;;12.80;99.90;;;;;;5112365;28;20085;-57
2023/07/25 00:19:56;;;;;;;10.32;2.80;;;12.80;99.90;;;;;;5112229;28;20040;-57
2023/07/25 00:22:22;;;;;;;8.75;3.70;;;12.80;99.90;;;;;;5112199;28;20040;-56
2023/07/25 00:24:48;;;;;;;10.93;3.13;;;12.80;99.90;;;;;;5111757;28;20090;-57
2023/07/25 00:27:14;;;;;;;10.63;3.80;;;12.80;99.90;;;;;;5112349;28;20377;-57
2023/07/25 00:29:40;;;;;;;10.73;3.22;;;12.90;99.90;;;;;;5110701;28;20043;-56
2023/07/25 00:32:06;;;;;;;8.10;3.00;;;12.90;99.90;;;;;;5112147;28;20489;-58
2023/07/25 00:34:31;;;;;;;8.00;3.20;;;12.90;99.90;;;;;;5112062;28;20055;-57
2023/07/25 00:36:57;;;;;;;17.70;3.97;;;12.90;99.90;;;;;;5111135;28;20044;-57
2023/07/25 00:39:23;;;;;;;12.80;3.10;;;12.90;99.90;;;;;;5112386;28;20047;-59
2023/07/25 00:41:48;;;;;;;6.68;3.08;;;12.90;99.90;;;;;;5112065;28;20043;-58
2023/07/25 00:44:14;;;;;;;15.15;2.97;;;12.90;99.90;;;;;;5112096;28;20039;-58
2023/07/25 00:46:41;;;;;;;10.23;3.72;;;12.80;99.90;;;;;;5095826;28;20032;-57
2023/07/25 00:49:07;;;;;;;7.13;2.90;;;12.80;99.90;;;;;;5091706;28;20040;-58
2023/07/25 00:51:34;;;;;;;8.80;2.88;;;12.80;99.90;;;;;;5091620;28;20036;-57
2023/07/25 00:54:00;;;;;;;9.00;3.42;;;12.90;99.90;;;;;;5095454;28;20079;-58
2023/07/25 00:56:26;;;;;;;9.32;3.67;;;12.90;99.90;;;;;;5102413;28;20132;-58
2023/07/25 00:58:52;;;;;;;12.95;3.60;;;13.00;99.90;;;;;;5115916;28;20471;-57
2023/07/25 01:01:18;;;;;;;11.27;3.72;;;13.00;99.90;;;;;;5115961;28;20101;-56
2023/07/25 01:03:44;;;;;;;11.60;3.17;;;13.10;99.90;;;;;;5105160;28;20776;-57
2023/07/25 01:06:12;;;;;;;8.60;3.25;;;13.10;99.90;;;;;;5077353;28;20032;-58
2023/07/25 01:08:54;;;;;;;11.20;3.20;;;13.20;99.90;;;;;;5095316;28;20135;-57
2023/07/25 01:11:22;;;;;;;10.88;3.33;;;13.10;99.90;;;;;;5095153;28;20144;-57
2023/07/25 01:13:48;;;;;;;12.45;3.35;;;13.10;99.90;;;;;;5095147;28;20047;-59
2023/07/25 01:16:17;;;;;;;9.02;4.03;;;13.10;99.90;;;;;;5094909;28;20039;-57
2023/07/25 01:18:44;;;;;;;7.22;2.92;;;13.00;99.90;;;;;;5094969;28;20050;-57
2023/07/25 01:21:11;;;;;;;5.47;2.80;;;13.00;99.90;;;;;;5094809;28;20040;-58
2023/07/25 01:23:38;;;;;;;11.23;3.33;;;13.00;99.90;;;;;;5094580;28;20055;-58
2023/07/25 01:26:03;;;;;;;5.93;2.33;;;12.90;99.90;;;;;;5094834;28;20047;-58
2023/07/25 01:28:30;;;;;;;7.00;2.90;;;12.90;99.90;;;;;;5093778;28;20052;-57
2023/07/25 01:30:56;;;;;;;8.95;3.35;;;12.90;99.90;;;;;;5094855;28;20039;-57
2023/07/25 01:33:22;;;;;;;7.88;2.95;;;13.00;99.90;;;;;;5093261;28;20478;-57
2023/07/25 01:35:48;;;;;;;9.38;2.83;;;13.00;99.90;;;;;;5095040;28;20404;-57
2023/07/25 01:38:14;;;;;;;9.80;2.72;;;13.10;99.90;;;;;;5094646;28;20032;-57
2023/07/25 01:40:40;;;;;;;10.88;4.05;;;13.10;99.90;;;;;;5094557;28;20070;-59
2023/07/25 01:43:09;;;;;;;10.15;2.97;;;13.20;99.90;;;;;;5094567;28;20123;-58
2023/07/25 01:45:35;;;;;;;;;;;13.20;99.90;;;;;;5094704;28;20111;-57
2023/07/25 01:48:00;;;;;;;9.05;2.80;;;13.20;99.90;;;;;;5093271;28;19920;-57
2023/07/25 01:50:27;;;;;;;14.32;3.10;;;13.20;99.90;;;;;;5094508;28;20122;-57
2023/07/25 01:52:53;;;;;;;11.63;3.10;;;13.30;99.90;;;;;;5094313;28;20055;-57
2023/07/25 01:55:18;;;;;;;7.82;3.10;;;13.30;99.90;;;;;;5094339;28;20032;-57
2023/07/25 01:57:44;;;;;;;8.02;3.30;;;13.20;99.90;;;;;;5094088;28;20402;-58
2023/07/25 02:00:10;;;;;;;8.80;2.60;;;13.30;99.90;;;;;;5094159;28;20483;-57
2023/07/25 02:02:36;;;;;;;9.65;3.00;;;13.40;99.90;;;;;;5092728;28;20398;-57
2023/07/25 02:05:01;;;;;;;11.10;3.00;;;13.40;99.90;;;;;;5093988;28;20028;-58
2023/07/25 02:07:27;;;;;;;8.35;2.70;;;13.40;99.90;;;;;;5094363;28;20040;-57
2023/07/25 02:09:53;;;;;;;6.53;2.90;;;13.30;99.90;;;;;;5094347;28;20453;-57
2023/07/25 02:12:18;;;;;;;9.02;2.83;;;13.30;99.90;;;;;;5094086;28;20374;-57
2023/07/25 02:14:44;;;;;;;12.00;2.80;;;13.40;99.90;;;;;;5094197;28;20040;-57
2023/07/25 02:17:10;;;;;;;10.88;2.70;;;13.40;99.90;;;;;;5093964;28;20066;-57
2023/07/25 02:19:35;;;;;;;7.07;2.63;;;13.30;99.90;;;;;;5093888;28;20144;-57
2023/07/25 02:22:01;;;;;;;7.13;3.08;;;13.30;99.90;;;;;;5094443;28;20036;-58
2023/07/25 02:24:27;;;;;;;7.82;2.58;;;13.30;99.90;;;;;;5075686;28;20040;-58
2023/07/25 02:26:52;;;;;;;7.50;2.92;;;13.30;99.90;;;;;;5093789;28;20047;-58
2023/07/25 02:29:18;;;;;;;11.05;2.70;;;13.40;99.90;;;;;;5093945;28;20082;-58
2023/07/25 02:31:44;;;;;;;9.50;2.80;;;13.40;99.90;;;;;;5092228;28;20076;-58
2023/07/25 02:34:09;;;;;;;13.15;2.47;;;13.40;99.90;;;;;;5092582;28;20530;-58
2023/07/25 02:36:35;;;;;;;10.43;2.90;;;13.40;99.90;;;;;;5093520;28;20508;-58
2023/07/25 02:39:01;;;;;;;12.80;3.20;;;13.30;99.90;;;;;;5093612;28;20040;-58
2023/07/25 02:41:26;;;;;;;10.68;2.70;;;13.40;99.90;;;;;;5093479;28;20387;-58
2023/07/25 02:43:52;;;;;;;5.85;2.80;;;13.40;99.90;;;;;;5093433;28;20036;-58
2023/07/25 02:46:17;;;;;;;8.23;2.25;;;13.40;99.90;;;;;;5092449;28;20098;-58
2023/07/25 02:48:43;;;;;;;13.35;3.47;;;13.40;99.90;;;;;;5093550;28;20098;-58
2023/07/25 02:51:09;;;;;;;9.75;2.65;;;13.50;99.90;;;;;;5093485;28;20040;-58
2023/07/25 02:53:34;;;;;;;10.82;2.65;;;13.50;99.90;;;;;;5093462;28;20076;-58
2023/07/25 02:56:00;;;;;;;8.88;2.95;;;13.50;99.90;;;;;;5093070;28;20071;-58
2023/07/25 02:58:25;;;;;;;8.25;2.38;;;13.50;99.90;;;;;;5093261;28;20436;-59
2023/07/25 03:00:51;;;;;;;9.93;2.72;;;13.60;99.90;;;;;;5091759;28;20131;-57
2023/07/25 03:03:17;;;;;;;6.72;2.60;;;13.60;99.90;;;;;;5092992;28;20032;-56
2023/07/25 03:05:42;;;;;;;11.63;3.38;;;13.60;99.90;;;;;;5092949;28;20072;-57
2023/07/25 03:08:08;;;;;;;11.57;4.18;;;13.60;99.90;;;;;;5092962;28;20032;-59
2023/07/25 03:10:33;;;;;;;22.58;4.30;;;13.70;99.90;;;;;;5093197;28;20051;-58
2023/07/25 03:12:59;;;;;;;20.77;4.03;;;13.60;99.90;;;;;;5111494;28;20032;-57
2023/07/25 03:15:25;;;;;;;13.77;3.60;;;13.70;99.90;;;;;;5112395;28;20039;-58
2023/07/25 03:17:51;;;;;;;9.85;3.28;;;13.70;99.90;;;;;;5113140;28;20031;-58
2023/07/25 03:20:16;;;;;;;13.20;3.90;;;13.70;99.90;;;;;;5113392;28;20477;-57
2023/07/25 03:22:42;;;;;;;13.70;3.30;;;13.70;99.90;;;;;;5113191;28;20039;-58
2023/07/25 03:25:08;;;;;;;8.88;3.00;;;13.70;99.90;;;;;;5113070;28;20802;-58
2023/07/25 03:27:34;;;;;;;9.65;3.70;;;13.80;99.90;;;;;;5112895;28;20043;-57
2023/07/25 03:30:00;;;;;;;8.45;3.10;;;13.80;99.90;;;;;;5112948;28;20044;-57
2023/07/25 03:32:25;;;;;;;10.15;3.00;;;13.80;99.90;;;;;;5112581;28;20374;-57
2023/07/25 03:34:51;;;;;;;12.73;3.10;;;13.80;99.90;;;;;;5113044;28;20056;-57
2023/07/25 03:37:16;;;;;;;16.45;3.42;;;13.80;99.90;;;;;;5112645;28;20439;-58
2023/07/25 03:39:42;;;;;;;11.63;3.22;;;13.80;99.90;;;;;;5112822;28;20046;-58
2023/07/25 03:42:07;;;;;;;13.38;3.88;;;13.90;99.90;;;;;;5112457;28;20070;-59
2023/07/25 03:44:33;;;;;;;15.45;3.70;;;13.90;99.90;;;;;;5112726;28;20057;-58
2023/07/25 03:46:59;;;;;;;12.80;4.00;;;13.90;99.90;;;;;;5112645;28;20044;-59
2023/07/25 03:49:24;;;;;;;15.63;3.45;;;13.90;99.90;;;;;;5112570;28;20084;-58
2023/07/25 03:51:50;;;;;;;8.30;3.00;;;13.90;99.90;;;;;;5112756;28;20039;-58
2023/07/25 03:54:17;;;;;;;18.42;3.55;;;13.90;99.90;;;;;;5108675;28;20513;-58
2023/07/25 03:56:43;;;;;;;15.15;3.67;;;13.80;99.90;;;;;;5092217;28;20451;-58
2023/07/25 03:59:09;;;;;;;14.20;3.17;;;13.80;99.90;;;;;;5092315;28;20122;-58
2023/07/25 04:01:35;;;;;;;9.27;2.92;;;13.80;99.90;;;;;;5092122;28;20085;-58
2023/07/25 04:04:00;;;;;;;12.30;3.08;;;13.80;99.90;;;;;;5092463;28;20085;-58
2023/07/25 04:06:26;;;;;;;7.85;2.72;;;13.80;99.90;;;;;;5078158;28;20717;-58
2023/07/25 04:08:51;;;;;;;15.15;2.80;;;13.80;99.90;;;;;;5092358;28;20036;-57
2023/07/25 04:11:17;;;;;;;6.72;2.63;;;13.80;99.90;;;;;;5092405;28;20032;-57
2023/07/25 04:13:42;;;;;;;10.13;3.17;;;13.80;99.90;;;;;;5092000;28;20036;-57
2023/07/25 04:16:08;;;;;;;15.70;3.72;;;13.80;99.90;;;;;;5102694;28;20039;-57
2023/07/25 04:18:34;;;;;;;13.80;3.00;;;13.80;99.90;;;;;;5112615;28;20031;-57
2023/07/25 04:20:59;;;;;;;12.60;2.83;;;13.70;99.90;;;;;;5112564;28;20035;-57
2023/07/25 04:23:26;;;;;;;9.43;2.88;;;13.70;99.90;;;;;;5110733;28;20039;-57
2023/07/25 04:25:52;;;;;;;12.30;3.22;;;13.70;99.90;;;;;;5112800;28;20385;-56
2023/07/25 04:28:17;;;;;;;8.65;2.90;;;13.70;99.90;;;;;;5115752;28;20043;-56
2023/07/25 04:30:43;;;;;;;8.65;2.65;;;13.60;99.90;;;;;;5116457;28;20044;-56
2023/07/25 04:33:09;;;;;;;7.50;3.15;;;13.60;99.90;;;;;;5116701;28;20049;-57
2023/07/25 04:35:35;;;;;;;12.50;2.90;;;13.60;99.90;;;;;;5116471;28;20042;-57
2023/07/25 04:38:00;;;;;;;11.65;2.80;;;13.50;99.90;;;;;;5116711;28;20393;-57
2023/07/25 04:40:26;;;;;;;10.05;3.33;;;13.50;99.90;;;;;;5116202;28;20039;-57
2023/07/25 04:42:52;;;;;;;11.13;2.90;;;13.50;99.90;;;;;;5116747;28;20073;-57
2023/07/25 04:45:18;;;;;;;7.22;2.72;;;13.50;99.90;;;;;;5115162;28;20047;-56
2023/07/25 04:47:43;;;;;;;10.07;3.50;;;13.50;99.90;;;;;;5116712;28;20053;-56
2023/07/25 04:50:09;;;;;;;10.10;2.40;;;13.50;99.90;;;;;;5116372;28;20044;-56
2023/07/25 04:52:35;;;;;;;6.78;2.33;;;13.50;99.90;;;;;;5116184;28;20123;-57
2023/07/25 04:55:00;;;;;;;7.10;2.58;;;13.50;99.90;;;;;;5104842;28;20101;-57
2023/07/25 04:57:26;;;;;;;9.57;2.75;;;13.50;99.90;;;;;;5095538;28;20055;-57
2023/07/25 04:59:53;;;;;;;12.52;3.20;;;13.50;99.90;;;;;;5095533;28;20040;-58
2023/07/25 05:02:22;;;;;;;8.27;2.47;;;13.50;99.90;;;;;;5095390;28;20494;-58
2023/07/25 05:04:48;;;;;;;8.90;2.50;;;13.60;99.90;;;;;;5081788;28;20482;-57
2023/07/25 05:07:14;;;;;;;10.10;2.30;;;13.60;99.90;;;;;;5095602;28;20036;-56
2023/07/25 05:09:40;;;;;;;6.53;1.88;;;13.60;99.90;;;;;;5094175;28;20115;-57
2023/07/25 05:12:10;;;;;;;5.25;2.00;;;13.50;99.90;;;;;;5095433;28;20043;-57
2023/07/25 05:14:35;;;;;;;8.43;2.40;;;13.50;99.90;;;;;;5095363;28;20036;-57
2023/07/25 05:17:01;;;;;;;8.00;2.83;;;13.60;99.90;;;;;;5095378;28;20046;-56
2023/07/25 05:19:27;;;;;;;10.43;2.25;;;13.50;99.90;;;;;;5108060;28;20043;-57
2023/07/25 05:21:52;;;;;;;12.07;2.85;;;13.50;99.90;;;;;;5113906;28;20470;-57
2023/07/25 05:24:18;;;;;;;6.38;1.85;;;13.50;99.90;;;;;;5115555;28;20046;-57
2023/07/25 05:26:43;;;;;;;8.25;2.50;;;13.50;99.90;;;;;;5115395;28;20047;-57
2023/07/25 05:29:09;;;;;;;10.18;2.28;;;13.60;99.90;;;;;;5115521;28;20039;-56
2023/07/25 05:31:35;;;;;;;7.85;2.33;;;13.70;99.90;;;;;;5115269;28;20059;-56
2023/07/25 05:34:00;;;;;;;5.72;2.60;;;13.80;99.90;;;;;;5115251;28;20085;-56
2023/07/25 05:36:26;;;;;;;6.53;2.05;;;13.90;99.90;;;;;;5115474;27;20085;-56
2023/07/25 05:38:51;;;;;;;11.18;2.58;;;14.00;99.90;;;;;;5114425;28;20043;-56
2023/07/25 05:41:17;;;;;;;10.18;2.05;;;14.00;99.90;;;;;;5115215;28;20096;-58
2023/07/25 05:43:43;;;;;;;11.48;2.08;;;13.90;99.90;;;;;;5115104;27;20082;-56
2023/07/25 05:46:09;;;;;;;10.98;2.22;;;13.90;99.90;;;;;;5115186;28;20036;-57
2023/07/25 05:48:34;;;;;;;10.23;2.38;;;13.90;99.90;;;;;;5114963;28;20393;-57
2023/07/25 05:51:00;;;;;;;6.70;1.98;;;13.90;99.90;;;;;;5114825;28;20070;-57
2023/07/25 05:53:26;;;;;;;11.40;2.38;;;14.00;99.90;;;;;;5115009;28;20089;-57
2023/07/25 05:55:51;;;;;;;16.08;3.28;;;14.10;99.90;;;;;;5097480;28;20043;-57
2023/07/25 05:58:18;;;;;;;12.00;2.28;;;14.20;99.90;;;;;;5094474;28;20051;-57
2023/07/25 06:00:44;;;;;;;11.90;2.10;;;14.30;99.90;;;;;;5093338;28;20563;-57
2023/07/25 06:03:14;;;;;;;8.75;2.35;;;14.40;99.90;;;;;;5094598;28;20073;-57
2023/07/25 06:05:40;;;;;;;10.98;2.40;;;14.60;99.90;;;;;;5094362;28;20107;-57
2023/07/25 06:08:06;;;;;;;6.50;1.80;;;14.70;99.90;;;;;;5094331;28;20169;-56
2023/07/25 06:10:32;;;;;;;13.80;2.35;;;14.80;99.90;;;;;;5094194;28;20047;-57
2023/07/25 06:12:58;;;;;;;16.55;2.60;;;14.90;99.90;;;;;;5092911;28;20486;-57
2023/07/25 06:15:24;;;;;;;17.98;2.53;;;15.00;99.90;;;;;;5094198;28;20039;-57
2023/07/25 06:17:50;;;;;;;9.60;1.75;;;15.10;99.90;;;;;;5097372;28;20051;-57
2023/07/25 06:20:16;;;;;;;8.90;1.83;;;15.20;99.90;;;;;;5093905;28;20040;-55
2023/07/25 06:22:42;;;;;;;10.48;1.58;;;15.40;99.90;;;;;;5093808;28;20051;-56
2023/07/25 06:25:08;;;;;;;8.80;1.75;;;15.50;99.90;;;;;;5110805;28;20044;-58
2023/07/25 06:27:34;;;;;;;11.00;1.90;;;15.50;99.90;;;;;;5094080;28;20032;-57
2023/07/25 06:30:01;;;;;;;13.65;1.95;;;15.60;99.90;;;;;;5094137;28;20115;-57
2023/07/25 06:32:26;;;;;;;10.88;1.88;;;15.70;99.90;;;;;;5094114;28;20040;-58
2023/07/25 06:34:52;;;;;;;11.57;1.60;;;15.70;99.90;;;;;;5093896;28;20097;-58
2023/07/25 06:37:18;;;;;;;8.73;1.60;;;15.80;99.90;;;;;;5093676;28;20047;-58
2023/07/25 06:39:43;;;;;;;6.15;1.80;;;15.90;99.90;;;;;;5094152;28;20626;-58
2023/07/25 06:42:09;;;;;;;9.68;1.50;;;16.00;99.90;;;;;;5093780;28;20040;-56
2023/07/25 06:44:34;;;;;;;6.50;1.02;;;16.10;99.90;;;;;;5093595;28;20046;-57
2023/07/25 06:47:00;;;;;;;5.38;0.98;;;16.20;99.90;;;;;;5093645;28;20036;-57
2023/07/25 06:49:26;;;;;;;8.25;1.42;;;16.30;99.90;;;;;;5092688;28;20111;-57
2023/07/25 06:51:51;;;;;;;7.40;0.98;;;16.40;99.90;;;;;;5093298;28;20048;-57
2023/07/25 06:54:17;;;;;;;7.95;1.38;;;16.50;99.90;;;;;;5093195;28;20047;-58
2023/07/25 06:56:43;;;;;;;5.70;1.30;;;16.60;99.90;;;;;;5093588;28;20043;-58
2023/07/25 06:59:08;;;;;;;4.93;0.88;;;16.60;99.90;;;;;;5093429;28;20040;-58
2023/07/25 07:01:34;;;;;;;9.07;1.25;;;16.60;99.90;;;;;;5093387;28;20036;-58
2023/07/25 07:03:59;;;;;;;5.93;1.13;;;16.60;99.90;;;;;;5093155;28;20043;-58
2023/07/25 07:06:25;;;;;;;4.10;0.85;;;16.40;99.90;;;;;;5093005;28;20107;-57
2023/07/25 07:08:51;;;;;;;3.78;0.80;;;16.50;99.90;;;;;;5093161;28;20035;-58
2023/07/25 07:11:18;;;;;;;3.92;0.90;;;16.50;99.90;;;;;;5092859;28;20044;-58
2023/07/25 07:13:43;;;;;;;5.88;1.00;;;16.50;99.90;;;;;;5093132;28;20048;-57
2023/07/25 07:16:09;;;;;;;5.45;1.13;;;16.50;99.90;;;;;;5093113;28;20425;-57
2023/07/25 07:18:35;;;;;;;3.90;0.77;;;16.80;99.90;;;;;;5092954;28;20044;-57
2023/07/25 07:21:01;;;;;;;3.78;0.95;;;17.00;99.90;;;;;;5093231;28;20051;-57
2023/07/25 07:23:26;;;;;;;3.33;0.80;;;17.10;99.90;;;;;;5095882;28;20460;-58
2023/07/25 07:25:52;;;;;;;6.05;0.77;;;17.10;99.90;;;;;;5104229;28;20043;-58
2023/07/25 07:28:18;;;;;;;7.43;1.20;;;17.30;99.90;;;;;;5092633;28;20036;-58
2023/07/25 07:30:51;;;;;;;8.52;1.30;;;17.20;99.90;;;;;;5105435;28;20043;-58
2023/07/25 07:33:18;;;;;;;2.67;0.70;;;17.40;99.90;;;;;;5086122;28;20044;-57
2023/07/25 07:35:44;;;;;;;9.05;0.85;;;17.60;99.90;;;;;;5111882;28;20047;-57
2023/07/25 07:38:10;;;;;;;3.40;0.88;;;17.70;99.90;;;;;;5112725;28;20038;-58
2023/07/25 07:40:36;;;;;;;6.38;1.20;;;17.90;99.90;;;;;;5112862;28;20043;-58
2023/07/25 07:43:02;;;;;;;4.60;0.82;;;18.30;99.90;;;;;;5112498;28;20035;-57
2023/07/25 07:45:29;;;;;;;3.20;0.70;;;18.60;99.90;;;;;;5112971;28;20107;-57
2023/07/25 07:47:55;;;;;;;4.82;1.00;;;18.80;99.90;;;;;;5112498;28;20031;-58
2023/07/25 07:50:21;;;;;;;7.25;0.85;;;18.60;99.90;;;;;;5112814;28;20123;-58
2023/07/25 07:52:48;;;;;;;5.03;0.77;;;18.20;99.90;;;;;;5112539;28;20088;-56
2023/07/25 07:55:14;;;;;;;5.20;0.90;;;17.80;99.90;;;;;;5112484;28;20540;-57
2023/07/25 07:57:42;;;;;;;2.83;0.80;;;17.60;99.90;;;;;;5112628;28;20088;-57
2023/07/25 08:00:08;;;;;;;3.35;1.08;;;17.30;99.90;;;;;;5112248;28;20572;-57
2023/07/25 08:02:34;;;;;;;5.47;1.05;;;17.20;99.90;;;;;;5112953;28;20027;-57
2023/07/25 08:05:00;;;;;;;6.72;1.05;;;17.50;99.90;;;;;;5112271;28;20039;-57
2023/07/25 08:07:25;;;;;;;5.78;1.02;;;17.80;99.90;;;;;;5111327;28;20038;-58
2023/07/25 08:09:57;;;;;;;3.50;0.85;;;18.00;99.90;;;;;;5112641;28;20050;-57
2023/07/25 08:12:23;;;;;;;3.80;1.00;;;18.10;99.90;;;;;;5083867;28;20393;-57
2023/07/25 08:14:49;;;;;;;4.88;0.70;;;18.20;99.90;;;;;;5112343;28;20036;-58
2023/07/25 08:17:15;;;;;;;2.47;1.02;;;18.30;99.90;;;;;;5112394;28;20042;-58
2023/07/25 08:19:41;;;;;;;5.82;1.08;;;18.20;99.90;;;;;;5112152;28;20039;-58
2023/07/25 08:22:10;;;;;;;7.30;1.00;;;18.30;99.90;;;;;;5112329;28;20027;-58
2023/07/25 08:24:39;;;;;;;2.55;0.90;;;18.40;99.90;;;;;;5110938;28;20081;-58
2023/07/25 08:27:05;;;;;;;6.10;1.02;;;18.60;99.90;;;;;;5093132;28;20107;-56
2023/07/25 08:29:31;;;;;;;7.43;2.17;;;18.70;99.90;;;;;;5091818;28;20506;-57
2023/07/25 08:31:56;;;;;;;3.13;1.40;;;18.90;99.90;;;;;;5098844;28;20042;-58
2023/07/25 08:34:22;;;;;;;2.45;0.68;;;19.00;99.90;;;;;;5112195;28;20497;-58
2023/07/25 08:36:48;;;;;;;3.63;0.82;;;19.40;99.90;;;;;;5112390;28;20035;-57
2023/07/25 08:39:13;;;;;;;6.07;1.00;;;19.70;99.90;;;;;;5112522;28;20122;-57
2023/07/25 08:41:53;;;;;;;4.20;0.90;;;20.10;99.90;;;;;;5112237;28;20401;-58
2023/07/25 08:44:21;;;;;;;;;;;20.40;99.90;;;;;;5112648;28;20036;-57
2023/07/25 08:46:50;;;;;;;4.60;1.00;;;20.10;99.90;;;;;;5112159;28;19966;-57
2023/07/25 08:49:19;;;;;;;5.35;0.80;;;20.00;99.90;;;;;;5112462;28;20120;-58
2023/07/25 08:51:48;;;;;;;5.45;0.95;;;20.10;99.90;;;;;;5112303;28;20409;-57
2023/07/25 08:54:20;;;;;;;4.63;2.08;;;19.90;99.90;;;;;;5110938;28;20041;-57
2023/07/25 08:56:47;;;;;;;1.95;0.80;;;20.00;99.90;;;;;;5110502;28;20035;-57
2023/07/25 08:59:13;;;;;;;1.95;1.02;;;20.70;99.90;;;;;;5111948;28;20394;-57
2023/07/25 09:01:39;;;;;;;7.05;1.10;;;20.50;99.90;;;;;;5111932;28;20063;-58
2023/07/25 09:04:06;;;;;;;5.90;1.00;;;20.40;99.90;;;;;;5112010;28;20081;-57
2023/07/25 09:06:31;;;;;;;7.32;1.60;;;20.20;99.90;;;;;;5112104;28;20046;-57
2023/07/25 09:08:57;;;;;;;4.85;1.20;;;20.30;99.90;;;;;;5111626;28;20032;-58
2023/07/25 09:11:23;;;;;;;10.15;1.00;;;20.30;99.90;;;;;;5112068;28;20050;-59
2023/07/25 09:13:49;;;;;;;9.65;0.80;;;20.70;99.90;;;;;;5114011;28;20047;-57
2023/07/25 09:16:15;;;;;;;4.53;0.90;;;20.70;99.90;;;;;;5115711;28;20066;-58
2023/07/25 09:18:42;;;;;;;2.85;0.90;;;20.80;99.90;;;;;;5115824;27;20047;-58
2023/07/25 09:21:08;;;;;;;8.27;1.10;;;20.90;99.90;;;;;;5115429;28;20118;-58
2023/07/25 09:23:34;;;;;;;6.78;1.17;;;20.80;99.90;;;;;;5114005;28;20127;-57
2023/07/25 09:26:10;;;;;;;3.38;0.90;;;20.50;99.90;;;;;;5105989;28;20062;-57
2023/07/25 09:28:46;;;;;;;1.33;0.80;;;20.10;99.90;;;;;;5098479;28;20039;-57
2023/07/25 09:31:12;;;;;;;3.58;1.05;;;19.70;99.90;;;;;;5115979;28;20071;-57
2023/07/25 09:33:38;;;;;;;5.60;0.93;;;20.00;99.90;;;;;;5115614;28;20063;-57
2023/07/25 09:36:05;;;;;;;5.80;0.98;;;19.70;99.90;;;;;;5115386;28;20085;-57
2023/07/25 09:38:32;;;;;;;2.63;0.90;;;19.30;99.90;;;;;;5114929;28;20435;-58
2023/07/25 09:40:58;;;;;;;4.35;0.98;;;19.20;99.90;;;;;;5115161;28;20123;-56
2023/07/25 09:43:25;;;;;;;2.90;0.82;;;19.10;99.90;;;;;;5115350;28;20114;-58
2023/07/25 09:45:52;;;;;;;4.15;1.00;;;19.50;99.90;;;;;;5114295;28;20393;-57
2023/07/25 09:48:18;;;;;;;5.53;1.10;;;19.80;99.90;;;;;;5114958;28;20085;-59
2023/07/25 09:50:44;;;;;;;5.00;1.50;;;19.90;99.90;;;;;;5115194;28;20089;-57
2023/07/25 09:53:12;;;;;;;4.60;0.98;;;19.60;99.90;;;;;;5115020;28;20040;-58
2023/07/25 09:55:38;;;;;;;2.70;0.80;;;19.40;99.90;;;;;;5115048;28;20039;-58
2023/07/25 09:58:04;;;;;;;6.47;1.05;;;19.10;99.90;;;;;;5113712;28;20039;-57
2023/07/25 10:00:31;;;;;;;5.70;1.00;;;19.00;99.90;;;;;;5115032;27;20111;-58
2023/07/25 10:02:58;;;;;;;5.95;0.88;;;18.60;99.90;;;;;;5114966;28;20043;-58
2023/07/25 10:05:25;;;;;;;4.90;1.33;;;18.60;99.90;;;;;;5114914;27;20168;-57
2023/07/25 10:07:53;;;;;;;3.55;1.38;;;18.70;99.90;;;;;;5114653;28;20527;-58
2023/07/25 10:10:19;;;;;;;9.55;1.45;;;18.80;99.90;;;;;;5114554;28;20040;-58
2023/07/25 10:12:45;;;;;;;4.28;1.40;;;18.90;99.90;;;;;;5114847;28;20046;-57
2023/07/25 10:15:12;;;;;;;6.13;1.30;;;19.00;99.90;;;;;;5114671;28;20039;-59
2023/07/25 10:17:38;;;;;;;5.28;0.93;;;19.50;99.90;;;;;;5114707;28;20043;-58
2023/07/25 10:20:07;;;;;;;7.05;1.25;;;19.40;99.90;;;;;;5114617;28;20036;-58
2023/07/25 10:22:42;;;;;;;4.00;0.98;;;19.30;99.90;;;;;;5114230;28;20039;-58
2023/07/25 10:25:17;;;;;;;4.57;1.00;;;19.10;99.90;;;;;;5111601;28;20464;-58
2023/07/25 10:27:43;;;;;;;2.45;0.82;;;18.70;99.90;;;;;;5093994;28;20028;-58
2023/07/25 10:30:23;;;;;;;3.97;0.98;;;18.30;99.90;;;;;;5093791;28;20047;-58
2023/07/25 10:32:51;;;;;;;3.20;0.80;;;18.20;99.90;;;;;;5094185;28;20359;-57
2023/07/25 10:35:50;;;;;;;6.10;1.10;;;18.40;99.90;;;;;;5093661;28;20075;-58
2023/07/25 10:38:32;;;;;;;4.57;0.88;;;19.00;99.90;;;;;;5093990;28;20043;-58
2023/07/25 10:41:16;;;;;;;4.47;0.75;;;19.50;99.90;;;;;;5080448;28;20036;-57
2023/07/25 10:43:44;;;;;;;4.13;0.98;;;19.90;99.90;;;;;;5093835;28;20393;-58
2023/07/25 10:46:21;;;;;;;20.40;1.48;;;20.30;99.90;;;;;;5094042;28;20040;-58
2023/07/25 10:48:49;;;;;;;5.85;1.45;;;19.90;99.90;;;;;;5093338;28;20140;-57
2023/07/25 10:51:17;;;;;;;3.75;1.35;;;19.60;99.90;;;;;;5093858;28;20047;-58
2023/07/25 10:54:04;;;;;;;2.87;1.00;;;19.40;99.90;;;;;;5093590;28;20039;-58
2023/07/25 10:56:29;;;;;;;5.72;1.40;;;19.30;99.90;;;;;;5097732;28;20043;-57
2023/07/25 10:59:08;;;;;;;3.85;1.00;;;19.30;99.90;;;;;;5093553;28;20040;-58
2023/07/25 11:01:54;;;;;;;4.22;0.77;;;19.60;99.90;;;;;;5093420;28;20482;-59
2023/07/25 11:04:32;;;;;;;3.75;1.13;;;19.60;99.90;;;;;;5092948;28;20131;-58
2023/07/25 11:07:25;;;;;;;4.70;1.00;;;19.50;99.90;;;;;;5092168;28;20053;-58
2023/07/25 11:09:51;;;;;;;3.33;0.80;;;19.40;99.90;;;;;;5091927;28;20101;-58
2023/07/25 11:12:23;;;;;;;2.55;0.65;;;19.20;99.90;;;;;;5092990;28;20040;-57
2023/07/25 11:14:49;;;;;;;4.00;0.88;;;19.50;99.90;;;;;;5093240;28;20119;-57
2023/07/25 11:17:15;;;;;;;3.13;0.82;;;19.80;99.90;;;;;;5093085;28;20036;-57
2023/07/25 11:19:40;;;;;;;2.50;0.75;;;20.10;99.90;;;;;;5092858;28;20044;-58
2023/07/25 11:22:09;;;;;;;3.17;0.73;;;19.90;99.90;;;;;;5093075;28;20075;-59
2023/07/25 11:24:46;;;;;;;8.43;1.85;;;19.60;99.90;;;;;;5092656;28;20058;-57
2023/07/25 11:27:13;;;;;;;13.18;1.77;;;19.60;99.90;;;;;;5092583;28;20028;-58
2023/07/25 11:29:39;;;;;;;6.88;1.35;;;19.50;99.90;;;;;;5092859;28;20119;-58
2023/07/25 11:32:05;;;;;;;2.92;0.77;;;19.50;99.90;;;;;;5092988;28;20035;-59
2023/07/25 11:34:30;;;;;;;4.25;0.85;;;19.60;99.90;;;;;;5093068;28;20050;-57
2023/07/25 11:36:56;;;;;;;5.35;0.93;;;19.60;99.90;;;;;;5091831;28;20040;-57
2023/07/25 11:39:22;;;;;;;4.03;1.05;;;19.50;99.90;;;;;;5092414;28;20440;-58
2023/07/25 11:41:48;;;;;;;2.92;0.70;;;19.60;99.90;;;;;;5092682;28;20044;-59
2023/07/25 11:44:19;;;;;;;4.72;0.82;;;19.60;99.90;;;;;;5092879;28;20549;-58
2023/07/25 11:46:48;;;;;;;5.50;1.02;;;19.70;99.90;;;;;;5095037;28;20054;-56
2023/07/25 11:49:15;;;;;;;6.47;0.95;;;19.60;99.90;;;;;;5094770;28;20504;-57
2023/07/25 11:51:41;;;;;;;2.78;0.65;;;19.50;99.90;;;;;;5112890;28;20047;-57
2023/07/25 11:54:08;;;;;;;3.38;0.80;;;19.40;99.90;;;;;;5112616;28;20063;-57
2023/07/25 11:56:35;;;;;;;5.03;1.42;;;19.40;99.90;;;;;;5112511;28;20661;-58
2023/07/25 11:59:01;;;;;;;3.42;0.93;;;19.30;99.90;;;;;;5112994;28;20087;-57
2023/07/25 12:01:28;;;;;;;5.28;0.85;;;19.20;99.90;;;;;;5112823;28;20127;-58
2023/07/25 12:03:54;;;;;;;4.88;0.60;;;19.20;99.90;;;;;;5112632;28;20487;-57
2023/07/25 12:06:31;;;;;;;3.40;0.82;;;19.20;99.90;;;;;;5112636;28;20385;-58
2023/07/25 12:08:58;;;;;;;3.92;0.70;;;19.10;99.90;;;;;;5112282;28;20035;-58
2023/07/25 12:11:24;;;;;;;5.18;0.73;;;19.10;99.90;;;;;;5094676;28;20060;-58
2023/07/25 12:13:57;;;;;;;2.90;0.60;;;19.10;99.90;;;;;;5111397;28;20043;-57
2023/07/25 12:16:28;;;;;;;3.78;0.80;;;19.10;99.90;;;;;;5112630;28;20058;-57
2023/07/25 12:18:59;;;;;;;7.28;0.90;;;19.20;99.90;;;;;;5112762;28;20068;-57
2023/07/25 12:21:30;;;;;;;5.03;0.90;;;19.40;99.90;;;;;;5112661;28;20085;-56
2023/07/25 12:24:02;;;;;;;6.57;1.48;;;19.60;99.90;;;;;;5112393;28;20051;-57
2023/07/25 12:26:28;;;;;;;3.30;0.80;;;19.70;99.90;;;;;;5098957;28;20101;-57
2023/07/25 12:28:54;;;;;;;5.28;1.00;;;20.00;99.90;;;;;;5092105;28;20082;-58
2023/07/25 12:31:21;;;;;;;6.38;0.90;;;20.20;99.90;;;;;;5092359;28;20040;-57
2023/07/25 12:33:49;;;;;;;1.92;0.70;;;20.30;99.90;;;;;;5091954;28;20405;-58
2023/07/25 12:36:17;;;;;;;5.40;1.08;;;20.10;99.90;;;;;;5092372;28;20043;-58
2023/07/25 12:38:43;;;;;;;4.28;0.82;;;19.80;99.90;;;;;;5091992;28;20058;-60
2023/07/25 12:41:09;;;;;;;1.95;0.70;;;19.70;99.90;;;;;;5090813;28;20426;-58
2023/07/25 12:43:34;;;;;;;1.90;0.60;;;19.70;99.90;;;;;;5090439;28;20040;-58